sensor_id;sensor_type;location;lat;lon;timestamp;P1;durP1;ratioP1;P2;durP2;ratioP2
16254;SDS011;8235;52.198;9.904;2024-01-11T00:01:44;79.60;;;33.20;;
16254;SDS011;8235;52.198;9.904;2024-01-11T00:04:11;74.27;;;32.90;;
16254;SDS011;8235;52.198;9.904;2024-01-11T00:06:39;80.53;;;31.10;;
16254;SDS011;8235;52.198;9.904;2024-01-11T00:09:07;76.67;;;31.47;;
16254;SDS011;8235;52.198;9.904;2024-01-11T00:11:33;78.90;;;32.27;;
16254;SDS011;8235;52.198;9.904;2024-01-11T00:14:00;83.57;;;29.87;;
16254;SDS011;8235;52.198;9.904;2024-01-11T00:16:27;71.50;;;29.10;;
16254;SDS011;8235;52.198;9.904;2024-01-11T00:18:54;67.80;;;30.07;;
16254;SDS011;8235;52.198;9.904;2024-01-11T00:21:20;71.93;;;29.83;;
16254;SDS011;8235;52.198;9.904;2024-01-11T00:23:47;75.07;;;29.53;;
16254;SDS011;8235;52.198;9.904;2024-01-11T00:26:14;83.20;;;30.93;;
16254;SDS011;8235;52.198;9.904;2024-01-11T00:28:41;70.87;;;30.30;;
16254;SDS011;8235;52.198;9.904;2024-01-11T00:31:07;77.30;;;31.10;;
16254;SDS011;8235;52.198;9.904;2024-01-11T00:33:35;74.23;;;31.90;;
16254;SDS011;8235;52.198;9.904;2024-01-11T00:36:02;80.27;;;30.87;;
16254;SDS011;8235;52.198;9.904;2024-01-11T00:38:29;74.10;;;30.87;;
16254;SDS011;8235;52.198;9.904;2024-01-11T00:40:56;76.57;;;31.20;;
16254;SDS011;8235;52.198;9.904;2024-01-11T00:43:22;74.67;;;31.80;;
16254;SDS011;8235;52.198;9.904;2024-01-11T00:45:49;77.07;;;30.50;;
16254;SDS011;8235;52.198;9.904;2024-01-11T00:48:15;67.93;;;30.67;;
16254;SDS011;8235;52.198;9.904;2024-01-11T00:50:43;72.47;;;30.47;;
16254;SDS011;8235;52.198;9.904;2024-01-11T00:53:09;76.93;;;30.60;;
16254;SDS011;8235;52.198;9.904;2024-01-11T00:55:39;74.83;;;31.27;;
16254;SDS011;8235;52.198;9.904;2024-01-11T00:58:05;76.87;;;31.17;;
16254;SDS011;8235;52.198;9.904;2024-01-11T01:00:32;80.30;;;30.30;;
16254;SDS011;8235;52.198;9.904;2024-01-11T01:02:58;75.83;;;29.20;;
16254;SDS011;8235;52.198;9.904;2024-01-11T01:05:25;77.53;;;29.47;;
16254;SDS011;8235;52.198;9.904;2024-01-11T01:07:53;69.07;;;29.67;;
16254;SDS011;8235;52.198;9.904;2024-01-11T01:10:19;78.03;;;30.30;;
16254;SDS011;8235;52.198;9.904;2024-01-11T01:12:45;74.43;;;29.93;;
16254;SDS011;8235;52.198;9.904;2024-01-11T01:15:12;83.87;;;32.00;;
16254;SDS011;8235;52.198;9.904;2024-01-11T01:17:39;75.10;;;28.90;;
16254;SDS011;8235;52.198;9.904;2024-01-11T01:20:06;73.83;;;30.10;;
16254;SDS011;8235;52.198;9.904;2024-01-11T01:22:33;72.70;;;29.83;;
16254;SDS011;8235;52.198;9.904;2024-01-11T01:25:01;72.00;;;30.57;;
16254;SDS011;8235;52.198;9.904;2024-01-11T01:27:29;85.73;;;32.07;;
16254;SDS011;8235;52.198;9.904;2024-01-11T01:29:55;75.27;;;31.03;;
16254;SDS011;8235;52.198;9.904;2024-01-11T01:32:21;75.37;;;31.60;;
16254;SDS011;8235;52.198;9.904;2024-01-11T01:34:48;74.70;;;30.40;;
16254;SDS011;8235;52.198;9.904;2024-01-11T01:37:14;79.47;;;31.37;;
16254;SDS011;8235;52.198;9.904;2024-01-11T01:39:41;76.83;;;29.80;;
16254;SDS011;8235;52.198;9.904;2024-01-11T01:42:09;75.30;;;29.63;;
16254;SDS011;8235;52.198;9.904;2024-01-11T01:44:36;70.93;;;29.67;;
16254;SDS011;8235;52.198;9.904;2024-01-11T01:47:05;66.00;;;28.57;;
16254;SDS011;8235;52.198;9.904;2024-01-11T01:49:32;65.57;;;27.67;;
16254;SDS011;8235;52.198;9.904;2024-01-11T01:51:59;67.70;;;28.87;;
16254;SDS011;8235;52.198;9.904;2024-01-11T01:54:26;71.60;;;29.90;;
16254;SDS011;8235;52.198;9.904;2024-01-11T01:56:53;71.70;;;28.30;;
16254;SDS011;8235;52.198;9.904;2024-01-11T01:59:22;74.07;;;28.23;;
16254;SDS011;8235;52.198;9.904;2024-01-11T02:01:52;74.30;;;27.60;;
16254;SDS011;8235;52.198;9.904;2024-01-11T02:04:19;64.47;;;27.93;;
16254;SDS011;8235;52.198;9.904;2024-01-11T02:06:46;66.57;;;27.57;;
16254;SDS011;8235;52.198;9.904;2024-01-11T02:09:13;76.53;;;27.57;;
16254;SDS011;8235;52.198;9.904;2024-01-11T02:11:40;65.37;;;26.77;;
16254;SDS011;8235;52.198;9.904;2024-01-11T02:14:07;64.60;;;27.20;;
16254;SDS011;8235;52.198;9.904;2024-01-11T02:16:35;76.53;;;28.97;;
16254;SDS011;8235;52.198;9.904;2024-01-11T02:19:01;68.33;;;27.57;;
16254;SDS011;8235;52.198;9.904;2024-01-11T02:21:29;66.93;;;26.60;;
16254;SDS011;8235;52.198;9.904;2024-01-11T02:24:04;71.03;;;27.17;;
16254;SDS011;8235;52.198;9.904;2024-01-11T02:26:32;66.43;;;26.13;;
16254;SDS011;8235;52.198;9.904;2024-01-11T02:28:59;63.40;;;25.03;;
16254;SDS011;8235;52.198;9.904;2024-01-11T02:31:26;67.80;;;27.53;;
16254;SDS011;8235;52.198;9.904;2024-01-11T02:33:53;59.40;;;26.47;;
16254;SDS011;8235;52.198;9.904;2024-01-11T02:36:20;61.87;;;26.33;;
16254;SDS011;8235;52.198;9.904;2024-01-11T02:38:47;63.47;;;26.33;;
16254;SDS011;8235;52.198;9.904;2024-01-11T02:41:16;55.80;;;25.93;;
16254;SDS011;8235;52.198;9.904;2024-01-11T02:43:46;60.40;;;24.80;;
16254;SDS011;8235;52.198;9.904;2024-01-11T02:46:13;61.80;;;25.73;;
16254;SDS011;8235;52.198;9.904;2024-01-11T02:48:40;57.70;;;23.87;;
16254;SDS011;8235;52.198;9.904;2024-01-11T02:51:07;62.40;;;23.20;;
16254;SDS011;8235;52.198;9.904;2024-01-11T02:53:33;52.83;;;22.40;;
16254;SDS011;8235;52.198;9.904;2024-01-11T02:56:00;54.57;;;23.47;;
16254;SDS011;8235;52.198;9.904;2024-01-11T02:58:28;53.23;;;20.87;;
16254;SDS011;8235;52.198;9.904;2024-01-11T03:00:54;52.43;;;21.53;;
16254;SDS011;8235;52.198;9.904;2024-01-11T03:03:21;64.20;;;24.33;;
16254;SDS011;8235;52.198;9.904;2024-01-11T03:05:47;50.27;;;22.10;;
16254;SDS011;8235;52.198;9.904;2024-01-11T03:08:13;47.50;;;21.13;;
16254;SDS011;8235;52.198;9.904;2024-01-11T03:10:40;47.20;;;19.80;;
16254;SDS011;8235;52.198;9.904;2024-01-11T03:13:06;44.47;;;19.57;;
16254;SDS011;8235;52.198;9.904;2024-01-11T03:15:34;53.93;;;21.43;;
16254;SDS011;8235;52.198;9.904;2024-01-11T03:18:01;45.60;;;19.90;;
16254;SDS011;8235;52.198;9.904;2024-01-11T03:20:27;51.67;;;19.93;;
16254;SDS011;8235;52.198;9.904;2024-01-11T03:22:54;47.30;;;19.53;;
16254;SDS011;8235;52.198;9.904;2024-01-11T03:25:21;46.90;;;19.67;;
16254;SDS011;8235;52.198;9.904;2024-01-11T03:27:47;41.87;;;19.07;;
16254;SDS011;8235;52.198;9.904;2024-01-11T03:30:14;47.73;;;20.23;;
16254;SDS011;8235;52.198;9.904;2024-01-11T03:32:42;48.60;;;20.47;;
16254;SDS011;8235;52.198;9.904;2024-01-11T03:35:09;52.87;;;21.07;;
16254;SDS011;8235;52.198;9.904;2024-01-11T03:37:36;49.00;;;19.97;;
16254;SDS011;8235;52.198;9.904;2024-01-11T03:40:02;43.47;;;18.97;;
16254;SDS011;8235;52.198;9.904;2024-01-11T03:42:29;44.07;;;19.07;;
16254;SDS011;8235;52.198;9.904;2024-01-11T03:44:56;47.60;;;20.03;;
16254;SDS011;8235;52.198;9.904;2024-01-11T03:47:22;44.33;;;18.77;;
16254;SDS011;8235;52.198;9.904;2024-01-11T03:49:50;43.70;;;19.63;;
16254;SDS011;8235;52.198;9.904;2024-01-11T03:52:17;43.97;;;19.43;;
16254;SDS011;8235;52.198;9.904;2024-01-11T03:54:43;42.63;;;18.03;;
16254;SDS011;8235;52.198;9.904;2024-01-11T03:57:10;39.23;;;17.60;;
16254;SDS011;8235;52.198;9.904;2024-01-11T03:59:36;46.43;;;19.37;;
16254;SDS011;8235;52.198;9.904;2024-01-11T04:02:03;45.30;;;19.90;;
16254;SDS011;8235;52.198;9.904;2024-01-11T04:04:30;43.13;;;20.03;;
16254;SDS011;8235;52.198;9.904;2024-01-11T04:06:58;43.17;;;18.50;;
16254;SDS011;8235;52.198;9.904;2024-01-11T04:09:24;40.23;;;18.83;;
16254;SDS011;8235;52.198;9.904;2024-01-11T04:11:51;49.53;;;20.37;;
16254;SDS011;8235;52.198;9.904;2024-01-11T04:14:17;51.07;;;19.77;;
16254;SDS011;8235;52.198;9.904;2024-01-11T04:16:44;51.40;;;21.67;;
16254;SDS011;8235;52.198;9.904;2024-01-11T04:19:10;50.23;;;20.80;;
16254;SDS011;8235;52.198;9.904;2024-01-11T04:21:37;47.27;;;21.13;;
16254;SDS011;8235;52.198;9.904;2024-01-11T04:24:05;49.37;;;21.57;;
16254;SDS011;8235;52.198;9.904;2024-01-11T04:26:32;52.33;;;23.80;;
16254;SDS011;8235;52.198;9.904;2024-01-11T04:28:59;56.43;;;24.57;;
16254;SDS011;8235;52.198;9.904;2024-01-11T04:31:25;49.17;;;21.93;;
16254;SDS011;8235;52.198;9.904;2024-01-11T04:33:52;54.67;;;21.40;;
16254;SDS011;8235;52.198;9.904;2024-01-11T04:36:18;54.30;;;22.23;;
16254;SDS011;8235;52.198;9.904;2024-01-11T04:38:44;55.87;;;22.23;;
16254;SDS011;8235;52.198;9.904;2024-01-11T04:41:12;57.50;;;22.87;;
16254;SDS011;8235;52.198;9.904;2024-01-11T04:43:39;55.47;;;21.37;;
16254;SDS011;8235;52.198;9.904;2024-01-11T04:46:13;51.23;;;21.67;;
16254;SDS011;8235;52.198;9.904;2024-01-11T04:48:40;47.70;;;21.67;;
16254;SDS011;8235;52.198;9.904;2024-01-11T04:51:07;48.43;;;21.77;;
16254;SDS011;8235;52.198;9.904;2024-01-11T04:53:35;53.97;;;21.40;;
16254;SDS011;8235;52.198;9.904;2024-01-11T04:56:02;53.80;;;20.80;;
16254;SDS011;8235;52.198;9.904;2024-01-11T04:58:30;50.53;;;19.93;;
16254;SDS011;8235;52.198;9.904;2024-01-11T05:00:57;46.10;;;20.87;;
16254;SDS011;8235;52.198;9.904;2024-01-11T05:03:23;41.93;;;18.97;;
16254;SDS011;8235;52.198;9.904;2024-01-11T05:05:50;41.13;;;19.63;;
16254;SDS011;8235;52.198;9.904;2024-01-11T05:08:17;54.97;;;21.37;;
16254;SDS011;8235;52.198;9.904;2024-01-11T05:10:43;47.30;;;21.10;;
16254;SDS011;8235;52.198;9.904;2024-01-11T05:13:10;48.30;;;20.37;;
16254;SDS011;8235;52.198;9.904;2024-01-11T05:15:38;64.47;;;23.07;;
16254;SDS011;8235;52.198;9.904;2024-01-11T05:18:04;49.67;;;21.47;;
16254;SDS011;8235;52.198;9.904;2024-01-11T05:20:30;57.97;;;23.00;;
16254;SDS011;8235;52.198;9.904;2024-01-11T05:22:57;52.67;;;21.80;;
16254;SDS011;8235;52.198;9.904;2024-01-11T05:25:26;55.87;;;22.10;;
16254;SDS011;8235;52.198;9.904;2024-01-11T05:27:53;57.10;;;22.63;;
16254;SDS011;8235;52.198;9.904;2024-01-11T05:30:19;52.73;;;21.40;;
16254;SDS011;8235;52.198;9.904;2024-01-11T05:32:47;49.23;;;22.07;;
16254;SDS011;8235;52.198;9.904;2024-01-11T05:35:14;57.50;;;23.13;;
16254;SDS011;8235;52.198;9.904;2024-01-11T05:37:40;58.03;;;24.77;;
16254;SDS011;8235;52.198;9.904;2024-01-11T05:40:07;54.37;;;23.33;;
16254;SDS011;8235;52.198;9.904;2024-01-11T05:42:34;63.40;;;24.47;;
16254;SDS011;8235;52.198;9.904;2024-01-11T05:45:02;61.30;;;24.20;;
16254;SDS011;8235;52.198;9.904;2024-01-11T05:47:29;70.43;;;25.70;;
16254;SDS011;8235;52.198;9.904;2024-01-11T05:49:57;57.23;;;23.87;;
16254;SDS011;8235;52.198;9.904;2024-01-11T05:52:24;60.83;;;25.33;;
16254;SDS011;8235;52.198;9.904;2024-01-11T05:54:50;64.77;;;26.07;;
16254;SDS011;8235;52.198;9.904;2024-01-11T05:57:17;60.93;;;25.80;;
16254;SDS011;8235;52.198;9.904;2024-01-11T05:59:43;63.40;;;24.53;;
16254;SDS011;8235;52.198;9.904;2024-01-11T06:02:10;60.03;;;26.33;;
16254;SDS011;8235;52.198;9.904;2024-01-11T06:04:37;62.67;;;25.13;;
16254;SDS011;8235;52.198;9.904;2024-01-11T06:07:05;62.77;;;25.57;;
16254;SDS011;8235;52.198;9.904;2024-01-11T06:09:31;65.27;;;26.97;;
16254;SDS011;8235;52.198;9.904;2024-01-11T06:11:58;67.07;;;25.97;;
16254;SDS011;8235;52.198;9.904;2024-01-11T06:14:25;69.43;;;25.80;;
16254;SDS011;8235;52.198;9.904;2024-01-11T06:16:52;68.90;;;26.43;;
16254;SDS011;8235;52.198;9.904;2024-01-11T06:19:18;64.47;;;25.10;;
16254;SDS011;8235;52.198;9.904;2024-01-11T06:21:45;59.33;;;24.60;;
16254;SDS011;8235;52.198;9.904;2024-01-11T06:24:13;63.77;;;24.27;;
16254;SDS011;8235;52.198;9.904;2024-01-11T06:26:40;60.47;;;24.97;;
16254;SDS011;8235;52.198;9.904;2024-01-11T06:29:06;55.90;;;22.80;;
16254;SDS011;8235;52.198;9.904;2024-01-11T06:31:32;58.57;;;23.07;;
16254;SDS011;8235;52.198;9.904;2024-01-11T06:33:59;57.80;;;24.87;;
16254;SDS011;8235;52.198;9.904;2024-01-11T06:36:26;55.43;;;22.83;;
16254;SDS011;8235;52.198;9.904;2024-01-11T06:38:53;60.90;;;24.57;;
16254;SDS011;8235;52.198;9.904;2024-01-11T06:41:21;69.83;;;26.23;;
16254;SDS011;8235;52.198;9.904;2024-01-11T06:43:47;71.20;;;29.80;;
16254;SDS011;8235;52.198;9.904;2024-01-11T06:46:19;72.73;;;29.37;;
16254;SDS011;8235;52.198;9.904;2024-01-11T06:48:46;75.03;;;28.60;;
16254;SDS011;8235;52.198;9.904;2024-01-11T06:51:14;68.13;;;27.77;;
16254;SDS011;8235;52.198;9.904;2024-01-11T06:53:40;72.37;;;28.50;;
16254;SDS011;8235;52.198;9.904;2024-01-11T06:56:13;77.10;;;28.17;;
16254;SDS011;8235;52.198;9.904;2024-01-11T06:58:41;71.13;;;27.63;;
16254;SDS011;8235;52.198;9.904;2024-01-11T07:01:09;71.33;;;29.47;;
16254;SDS011;8235;52.198;9.904;2024-01-11T07:03:35;65.63;;;26.73;;
16254;SDS011;8235;52.198;9.904;2024-01-11T07:06:02;69.90;;;28.30;;
16254;SDS011;8235;52.198;9.904;2024-01-11T07:08:29;65.37;;;29.70;;
16254;SDS011;8235;52.198;9.904;2024-01-11T07:10:55;76.63;;;28.80;;
16254;SDS011;8235;52.198;9.904;2024-01-11T07:13:22;72.40;;;27.20;;
16254;SDS011;8235;52.198;9.904;2024-01-11T07:15:50;70.00;;;27.10;;
16254;SDS011;8235;52.198;9.904;2024-01-11T07:18:17;67.47;;;27.40;;
16254;SDS011;8235;52.198;9.904;2024-01-11T07:20:44;64.80;;;26.80;;
16254;SDS011;8235;52.198;9.904;2024-01-11T07:23:10;64.97;;;26.27;;
16254;SDS011;8235;52.198;9.904;2024-01-11T07:25:37;72.37;;;27.13;;
16254;SDS011;8235;52.198;9.904;2024-01-11T07:28:04;67.40;;;26.80;;
16254;SDS011;8235;52.198;9.904;2024-01-11T07:30:30;75.20;;;27.63;;
16254;SDS011;8235;52.198;9.904;2024-01-11T07:32:58;65.90;;;27.57;;
16254;SDS011;8235;52.198;9.904;2024-01-11T07:35:25;71.47;;;28.90;;
16254;SDS011;8235;52.198;9.904;2024-01-11T07:37:51;71.23;;;27.13;;
16254;SDS011;8235;52.198;9.904;2024-01-11T07:40:18;68.73;;;26.17;;
16254;SDS011;8235;52.198;9.904;2024-01-11T07:42:44;64.97;;;26.10;;
16254;SDS011;8235;52.198;9.904;2024-01-11T07:45:12;61.47;;;25.93;;
16254;SDS011;8235;52.198;9.904;2024-01-11T07:47:38;60.77;;;25.60;;
16254;SDS011;8235;52.198;9.904;2024-01-11T07:50:07;62.97;;;25.63;;
16254;SDS011;8235;52.198;9.904;2024-01-11T07:52:35;60.60;;;23.80;;
16254;SDS011;8235;52.198;9.904;2024-01-11T07:55:02;56.33;;;24.73;;
16254;SDS011;8235;52.198;9.904;2024-01-11T07:57:32;61.60;;;25.47;;
16254;SDS011;8235;52.198;9.904;2024-01-11T07:59:59;56.10;;;23.57;;
16254;SDS011;8235;52.198;9.904;2024-01-11T08:02:25;61.30;;;24.93;;
16254;SDS011;8235;52.198;9.904;2024-01-11T08:04:52;52.17;;;22.50;;
16254;SDS011;8235;52.198;9.904;2024-01-11T08:07:20;46.03;;;20.93;;
16254;SDS011;8235;52.198;9.904;2024-01-11T08:09:46;46.10;;;21.53;;
16254;SDS011;8235;52.198;9.904;2024-01-11T08:12:13;55.83;;;22.73;;
16254;SDS011;8235;52.198;9.904;2024-01-11T08:14:40;45.37;;;20.80;;
16254;SDS011;8235;52.198;9.904;2024-01-11T08:17:07;54.40;;;22.93;;
16254;SDS011;8235;52.198;9.904;2024-01-11T08:19:33;46.70;;;20.70;;
16254;SDS011;8235;52.198;9.904;2024-01-11T08:22:00;45.73;;;20.60;;
16254;SDS011;8235;52.198;9.904;2024-01-11T08:24:28;49.00;;;20.53;;
16254;SDS011;8235;52.198;9.904;2024-01-11T08:26:55;59.43;;;22.27;;
16254;SDS011;8235;52.198;9.904;2024-01-11T08:29:22;54.23;;;23.43;;
16254;SDS011;8235;52.198;9.904;2024-01-11T08:31:49;55.63;;;23.10;;
16254;SDS011;8235;52.198;9.904;2024-01-11T08:34:15;57.63;;;23.63;;
16254;SDS011;8235;52.198;9.904;2024-01-11T08:36:42;55.37;;;22.97;;
16254;SDS011;8235;52.198;9.904;2024-01-11T08:39:09;58.57;;;22.83;;
16254;SDS011;8235;52.198;9.904;2024-01-11T08:41:38;52.17;;;21.20;;
16254;SDS011;8235;52.198;9.904;2024-01-11T08:44:05;51.77;;;22.33;;
16254;SDS011;8235;52.198;9.904;2024-01-11T08:46:31;53.70;;;22.10;;
16254;SDS011;8235;52.198;9.904;2024-01-11T08:48:59;58.50;;;22.73;;
16254;SDS011;8235;52.198;9.904;2024-01-11T08:51:28;57.07;;;23.23;;
16254;SDS011;8235;52.198;9.904;2024-01-11T08:53:54;52.67;;;23.27;;
16254;SDS011;8235;52.198;9.904;2024-01-11T08:56:21;55.77;;;23.17;;
16254;SDS011;8235;52.198;9.904;2024-01-11T08:58:49;55.17;;;22.93;;
16254;SDS011;8235;52.198;9.904;2024-01-11T09:01:16;53.00;;;22.03;;
16254;SDS011;8235;52.198;9.904;2024-01-11T09:03:43;49.30;;;21.27;;
16254;SDS011;8235;52.198;9.904;2024-01-11T09:06:10;47.97;;;20.87;;
16254;SDS011;8235;52.198;9.904;2024-01-11T09:08:37;48.43;;;20.70;;
16254;SDS011;8235;52.198;9.904;2024-01-11T09:11:03;45.63;;;19.93;;
16254;SDS011;8235;52.198;9.904;2024-01-11T09:13:30;42.70;;;19.87;;
16254;SDS011;8235;52.198;9.904;2024-01-11T09:15:58;37.43;;;18.60;;
16254;SDS011;8235;52.198;9.904;2024-01-11T09:18:24;51.97;;;20.73;;
16254;SDS011;8235;52.198;9.904;2024-01-11T09:20:51;43.57;;;19.90;;
16254;SDS011;8235;52.198;9.904;2024-01-11T09:23:17;48.67;;;20.63;;
16254;SDS011;8235;52.198;9.904;2024-01-11T09:25:44;43.37;;;19.83;;
16254;SDS011;8235;52.198;9.904;2024-01-11T09:28:10;39.60;;;17.60;;
16254;SDS011;8235;52.198;9.904;2024-01-11T09:30:37;43.63;;;18.80;;
16254;SDS011;8235;52.198;9.904;2024-01-11T09:33:05;44.70;;;19.37;;
16254;SDS011;8235;52.198;9.904;2024-01-11T09:35:31;38.00;;;18.53;;
16254;SDS011;8235;52.198;9.904;2024-01-11T09:37:58;37.33;;;19.23;;
16254;SDS011;8235;52.198;9.904;2024-01-11T09:40:26;44.97;;;19.33;;
16254;SDS011;8235;52.198;9.904;2024-01-11T09:42:52;38.73;;;17.47;;
16254;SDS011;8235;52.198;9.904;2024-01-11T09:45:19;38.13;;;18.37;;
16254;SDS011;8235;52.198;9.904;2024-01-11T09:47:46;33.03;;;15.40;;
16254;SDS011;8235;52.198;9.904;2024-01-11T09:50:15;35.60;;;16.60;;
16254;SDS011;8235;52.198;9.904;2024-01-11T09:52:43;36.33;;;16.10;;
16254;SDS011;8235;52.198;9.904;2024-01-11T09:55:12;34.63;;;16.07;;
16254;SDS011;8235;52.198;9.904;2024-01-11T09:57:40;35.73;;;15.20;;
16254;SDS011;8235;52.198;9.904;2024-01-11T10:00:10;32.60;;;13.70;;
16254;SDS011;8235;52.198;9.904;2024-01-11T10:02:44;36.80;;;15.30;;
16254;SDS011;8235;52.198;9.904;2024-01-11T10:05:11;29.13;;;14.07;;
16254;SDS011;8235;52.198;9.904;2024-01-11T10:07:40;34.30;;;13.27;;
16254;SDS011;8235;52.198;9.904;2024-01-11T10:10:07;29.80;;;12.77;;
16254;SDS011;8235;52.198;9.904;2024-01-11T10:12:34;26.93;;;13.13;;
16254;SDS011;8235;52.198;9.904;2024-01-11T10:15:04;32.60;;;12.87;;
16254;SDS011;8235;52.198;9.904;2024-01-11T10:17:34;25.93;;;11.20;;
16254;SDS011;8235;52.198;9.904;2024-01-11T10:20:01;28.67;;;12.80;;
16254;SDS011;8235;52.198;9.904;2024-01-11T10:22:28;27.83;;;13.07;;
16254;SDS011;8235;52.198;9.904;2024-01-11T10:25:08;29.80;;;13.63;;
16254;SDS011;8235;52.198;9.904;2024-01-11T10:27:37;30.60;;;12.60;;
16254;SDS011;8235;52.198;9.904;2024-01-11T10:30:04;32.53;;;14.13;;
16254;SDS011;8235;52.198;9.904;2024-01-11T10:32:32;36.27;;;14.87;;
16254;SDS011;8235;52.198;9.904;2024-01-11T10:34:59;34.93;;;14.63;;
16254;SDS011;8235;52.198;9.904;2024-01-11T10:37:28;32.93;;;15.03;;
16254;SDS011;8235;52.198;9.904;2024-01-11T10:39:56;41.33;;;16.97;;
16254;SDS011;8235;52.198;9.904;2024-01-11T10:42:25;33.40;;;14.67;;
16254;SDS011;8235;52.198;9.904;2024-01-11T10:44:57;38.57;;;16.60;;
16254;SDS011;8235;52.198;9.904;2024-01-11T10:47:25;31.73;;;13.57;;
16254;SDS011;8235;52.198;9.904;2024-01-11T10:49:56;24.27;;;11.23;;
16254;SDS011;8235;52.198;9.904;2024-01-11T10:52:31;25.43;;;11.37;;
16254;SDS011;8235;52.198;9.904;2024-01-11T10:55:08;23.07;;;10.10;;
16254;SDS011;8235;52.198;9.904;2024-01-11T10:57:36;22.97;;;10.73;;
16254;SDS011;8235;52.198;9.904;2024-01-11T11:00:04;23.77;;;10.20;;
16254;SDS011;8235;52.198;9.904;2024-01-11T11:02:32;23.57;;;10.30;;
16254;SDS011;8235;52.198;9.904;2024-01-11T11:05:00;21.10;;;10.77;;
16254;SDS011;8235;52.198;9.904;2024-01-11T11:07:29;25.07;;;12.13;;
16254;SDS011;8235;52.198;9.904;2024-01-11T11:09:56;30.50;;;12.50;;
16254;SDS011;8235;52.198;9.904;2024-01-11T11:12:24;25.67;;;11.83;;
16254;SDS011;8235;52.198;9.904;2024-01-11T11:14:53;27.33;;;12.63;;
16254;SDS011;8235;52.198;9.904;2024-01-11T11:17:20;27.07;;;12.23;;
16254;SDS011;8235;52.198;9.904;2024-01-11T11:19:47;30.27;;;12.97;;
16254;SDS011;8235;52.198;9.904;2024-01-11T11:22:14;28.23;;;12.50;;
16254;SDS011;8235;52.198;9.904;2024-01-11T11:24:41;30.27;;;14.27;;
16254;SDS011;8235;52.198;9.904;2024-01-11T11:27:07;29.27;;;14.23;;
16254;SDS011;8235;52.198;9.904;2024-01-11T11:29:34;30.87;;;14.87;;
16254;SDS011;8235;52.198;9.904;2024-01-11T11:32:02;29.03;;;12.87;;
16254;SDS011;8235;52.198;9.904;2024-01-11T11:34:42;26.53;;;13.40;;
16254;SDS011;8235;52.198;9.904;2024-01-11T11:37:09;29.60;;;14.27;;
16254;SDS011;8235;52.198;9.904;2024-01-11T11:39:36;24.17;;;13.27;;
16254;SDS011;8235;52.198;9.904;2024-01-11T11:42:03;27.67;;;13.70;;
16254;SDS011;8235;52.198;9.904;2024-01-11T11:44:30;29.17;;;14.70;;
16254;SDS011;8235;52.198;9.904;2024-01-11T11:47:09;34.63;;;13.50;;
16254;SDS011;8235;52.198;9.904;2024-01-11T11:49:52;33.10;;;15.77;;
16254;SDS011;8235;52.198;9.904;2024-01-11T11:52:24;35.47;;;16.03;;
16254;SDS011;8235;52.198;9.904;2024-01-11T11:54:51;40.77;;;18.97;;
16254;SDS011;8235;52.198;9.904;2024-01-11T11:57:18;44.97;;;20.83;;
16254;SDS011;8235;52.198;9.904;2024-01-11T11:59:46;40.87;;;21.07;;
16254;SDS011;8235;52.198;9.904;2024-01-11T12:02:16;49.53;;;21.63;;
16254;SDS011;8235;52.198;9.904;2024-01-11T12:04:46;46.53;;;21.90;;
16254;SDS011;8235;52.198;9.904;2024-01-11T12:07:12;46.07;;;19.63;;
16254;SDS011;8235;52.198;9.904;2024-01-11T12:09:40;50.30;;;26.63;;
16254;SDS011;8235;52.198;9.904;2024-01-11T12:12:06;76.67;;;36.47;;
16254;SDS011;8235;52.198;9.904;2024-01-11T12:14:33;47.33;;;20.77;;
16254;SDS011;8235;52.198;9.904;2024-01-11T12:17:00;45.47;;;22.20;;
16254;SDS011;8235;52.198;9.904;2024-01-11T12:19:28;44.77;;;20.43;;
16254;SDS011;8235;52.198;9.904;2024-01-11T12:21:55;42.73;;;19.47;;
16254;SDS011;8235;52.198;9.904;2024-01-11T12:24:22;36.47;;;18.57;;
16254;SDS011;8235;52.198;9.904;2024-01-11T12:26:49;39.10;;;18.57;;
16254;SDS011;8235;52.198;9.904;2024-01-11T12:29:17;39.37;;;17.90;;
16254;SDS011;8235;52.198;9.904;2024-01-11T12:31:43;38.57;;;18.00;;
16254;SDS011;8235;52.198;9.904;2024-01-11T12:34:10;39.33;;;19.43;;
16254;SDS011;8235;52.198;9.904;2024-01-11T12:36:39;45.23;;;19.97;;
16254;SDS011;8235;52.198;9.904;2024-01-11T12:39:06;43.20;;;19.10;;
16254;SDS011;8235;52.198;9.904;2024-01-11T12:41:34;44.60;;;20.13;;
16254;SDS011;8235;52.198;9.904;2024-01-11T12:44:01;43.70;;;19.37;;
16254;SDS011;8235;52.198;9.904;2024-01-11T12:46:28;52.00;;;23.83;;
16254;SDS011;8235;52.198;9.904;2024-01-11T12:48:55;60.70;;;26.00;;
16254;SDS011;8235;52.198;9.904;2024-01-11T12:51:21;64.07;;;29.63;;
16254;SDS011;8235;52.198;9.904;2024-01-11T12:53:50;58.37;;;26.70;;
16254;SDS011;8235;52.198;9.904;2024-01-11T12:56:18;52.87;;;27.07;;
16254;SDS011;8235;52.198;9.904;2024-01-11T12:58:46;54.20;;;22.87;;
16254;SDS011;8235;52.198;9.904;2024-01-11T13:01:13;49.93;;;22.23;;
16254;SDS011;8235;52.198;9.904;2024-01-11T13:03:43;47.63;;;22.57;;
16254;SDS011;8235;52.198;9.904;2024-01-11T13:06:11;50.90;;;22.10;;
16254;SDS011;8235;52.198;9.904;2024-01-11T13:08:38;56.10;;;24.63;;
16254;SDS011;8235;52.198;9.904;2024-01-11T13:11:07;63.37;;;25.43;;
16254;SDS011;8235;52.198;9.904;2024-01-11T13:13:36;58.77;;;23.93;;
16254;SDS011;8235;52.198;9.904;2024-01-11T13:16:02;56.63;;;24.53;;
16254;SDS011;8235;52.198;9.904;2024-01-11T13:18:31;49.67;;;22.40;;
16254;SDS011;8235;52.198;9.904;2024-01-11T13:20:57;52.23;;;23.73;;
16254;SDS011;8235;52.198;9.904;2024-01-11T13:23:24;54.10;;;22.10;;
16254;SDS011;8235;52.198;9.904;2024-01-11T13:25:51;53.90;;;21.70;;
16254;SDS011;8235;52.198;9.904;2024-01-11T13:28:18;44.27;;;19.70;;
16254;SDS011;8235;52.198;9.904;2024-01-11T13:30:45;55.97;;;21.93;;
16254;SDS011;8235;52.198;9.904;2024-01-11T13:33:13;43.57;;;19.27;;
16254;SDS011;8235;52.198;9.904;2024-01-11T13:35:42;46.37;;;20.30;;
16254;SDS011;8235;52.198;9.904;2024-01-11T13:38:09;39.53;;;17.63;;
16254;SDS011;8235;52.198;9.904;2024-01-11T13:40:36;34.13;;;17.27;;
16254;SDS011;8235;52.198;9.904;2024-01-11T13:43:04;40.47;;;17.33;;
16254;SDS011;8235;52.198;9.904;2024-01-11T13:45:32;41.90;;;16.23;;
16254;SDS011;8235;52.198;9.904;2024-01-11T13:48:01;28.70;;;14.40;;
16254;SDS011;8235;52.198;9.904;2024-01-11T13:50:28;28.27;;;14.23;;
16254;SDS011;8235;52.198;9.904;2024-01-11T13:52:55;38.93;;;16.87;;
16254;SDS011;8235;52.198;9.904;2024-01-11T13:55:21;33.33;;;15.53;;
16254;SDS011;8235;52.198;9.904;2024-01-11T13:57:48;36.20;;;16.93;;
16254;SDS011;8235;52.198;9.904;2024-01-11T14:00:16;38.50;;;18.17;;
16254;SDS011;8235;52.198;9.904;2024-01-11T14:02:45;39.27;;;18.37;;
16254;SDS011;8235;52.198;9.904;2024-01-11T14:05:13;38.90;;;18.43;;
16254;SDS011;8235;52.198;9.904;2024-01-11T14:07:43;40.13;;;18.03;;
16254;SDS011;8235;52.198;9.904;2024-01-11T14:10:10;40.00;;;18.73;;
16254;SDS011;8235;52.198;9.904;2024-01-11T14:12:38;43.47;;;20.77;;
16254;SDS011;8235;52.198;9.904;2024-01-11T14:15:05;36.33;;;19.47;;
16254;SDS011;8235;52.198;9.904;2024-01-11T14:17:36;42.27;;;20.57;;
16254;SDS011;8235;52.198;9.904;2024-01-11T14:20:04;38.30;;;19.23;;
16254;SDS011;8235;52.198;9.904;2024-01-11T14:22:36;38.00;;;19.60;;
16254;SDS011;8235;52.198;9.904;2024-01-11T14:25:03;45.20;;;20.90;;
16254;SDS011;8235;52.198;9.904;2024-01-11T14:27:30;38.47;;;19.27;;
16254;SDS011;8235;52.198;9.904;2024-01-11T14:29:56;48.97;;;22.53;;
16254;SDS011;8235;52.198;9.904;2024-01-11T14:32:23;42.30;;;20.83;;
16254;SDS011;8235;52.198;9.904;2024-01-11T14:34:51;42.67;;;22.10;;